createdAt,value
2023-04-22T00:00:34.589Z,0.00
2023-04-22T00:01:34.578Z,0.00
2023-04-22T00:02:34.730Z,0.00
2023-04-22T00:03:34.779Z,0.00
2023-04-22T00:04:34.857Z,0.00
2023-04-22T00:05:34.590Z,0.00
2023-04-22T00:06:34.532Z,0.00
2023-04-22T00:07:34.561Z,0.00
2023-04-22T00:08:34.525Z,0.00
2023-04-22T00:09:34.510Z,0.00
2023-04-22T00:10:34.501Z,0.00
2023-04-22T00:11:34.478Z,0.00
2023-04-22T00:12:34.469Z,0.00
2023-04-22T00:13:34.445Z,0.00
2023-04-22T00:14:34.452Z,0.00
2023-04-22T00:15:34.453Z,0.00
2023-04-22T00:16:34.499Z,0.00
2023-04-22T00:17:34.437Z,0.00
2023-04-22T00:18:34.399Z,0.00
2023-04-22T00:19:34.428Z,0.00
2023-04-22T00:20:34.379Z,0.00
2023-04-22T00:21:34.376Z,0.00
2023-04-22T00:22:34.362Z,0.00
2023-04-22T00:23:34.348Z,0.00
2023-04-22T00:24:34.331Z,0.00
2023-04-22T00:25:34.406Z,0.00
2023-04-22T00:26:34.331Z,0.00
2023-04-22T00:27:34.349Z,0.00
2023-04-22T00:28:34.302Z,0.00
2023-04-22T00:29:34.283Z,0.00
2023-04-22T00:30:34.263Z,0.00
2023-04-22T00:31:34.402Z,0.00
2023-04-22T00:32:34.259Z,0.00
2023-04-22T00:33:34.240Z,0.00
2023-04-22T00:34:34.233Z,0.00
2023-04-22T00:35:34.216Z,0.00
2023-04-22T00:36:34.203Z,0.00
2023-04-22T00:37:34.195Z,0.00
2023-04-22T00:38:34.184Z,0.00
2023-04-22T00:39:34.179Z,0.00
2023-04-22T00:40:34.178Z,0.00
2023-04-22T00:41:34.156Z,0.00
2023-04-22T00:42:34.164Z,0.00
2023-04-22T00:43:34.129Z,0.00
2023-04-22T00:44:34.109Z,0.00
2023-04-22T00:45:34.113Z,0.00
2023-04-22T00:46:34.173Z,0.00
2023-04-22T00:47:34.112Z,0.00
2023-04-22T00:48:34.078Z,0.00
2023-04-22T00:49:34.071Z,0.00
2023-04-22T00:50:34.042Z,0.00
2023-04-22T00:51:34.048Z,0.00
2023-04-22T00:52:34.023Z,0.00
2023-04-22T00:53:34.046Z,0.00
2023-04-22T00:54:34.012Z,0.00
2023-04-22T00:55:33.995Z,0.00
2023-04-22T00:56:34.004Z,0.00
2023-04-22T00:57:33.977Z,0.00
2023-04-22T00:58:33.971Z,0.00
2023-04-22T00:59:33.955Z,0.00
2023-04-22T01:00:33.984Z,0.00
2023-04-22T01:01:33.965Z,0.00
2023-04-22T01:02:34.061Z,0.00
2023-04-22T01:03:34.051Z,0.00
2023-04-22T01:04:33.978Z,0.00
2023-04-22T01:05:33.891Z,0.00
2023-04-22T01:06:33.867Z,0.00
2023-04-22T01:07:33.882Z,0.00
2023-04-22T01:08:33.852Z,0.00
2023-04-22T01:09:33.854Z,0.00
2023-04-22T01:10:33.843Z,0.00
2023-04-22T01:11:33.830Z,0.00
2023-04-22T01:12:33.814Z,0.00
2023-04-22T01:13:33.805Z,0.00
2023-04-22T01:14:33.795Z,0.00
2023-04-22T01:15:33.792Z,0.00
2023-04-22T01:16:33.822Z,0.00
2023-04-22T01:17:34.041Z,0.00
2023-04-22T01:18:33.761Z,0.00
2023-04-22T01:19:33.740Z,0.00
2023-04-22T01:20:33.719Z,0.00
2023-04-22T01:21:33.743Z,0.00
2023-04-22T01:22:33.700Z,0.00
2023-04-22T01:23:33.687Z,0.00
2023-04-22T01:24:33.667Z,0.00
2023-04-22T01:25:33.673Z,0.00
2023-04-22T01:26:33.650Z,0.00
2023-04-22T01:27:33.675Z,0.00
2023-04-22T01:28:33.641Z,0.00
2023-04-22T01:29:33.632Z,0.00
2023-04-22T01:30:33.610Z,0.00
2023-04-22T01:31:33.639Z,0.00
2023-04-22T01:32:33.623Z,0.00
2023-04-22T01:33:33.593Z,0.00
2023-04-22T01:34:33.575Z,0.00
2023-04-22T01:35:33.571Z,0.00
2023-04-22T01:36:33.546Z,0.00
2023-04-22T01:37:33.544Z,0.00
2023-04-22T01:38:33.547Z,0.00
2023-04-22T01:39:33.545Z,0.00
2023-04-22T01:40:33.511Z,0.00
2023-04-22T01:41:33.505Z,0.00
2023-04-22T01:42:33.485Z,0.00
2023-04-22T01:43:33.474Z,0.00
2023-04-22T01:44:33.461Z,0.00
2023-04-22T01:45:33.490Z,0.00
2023-04-22T01:46:33.570Z,0.00
2023-04-22T01:47:33.466Z,0.00
2023-04-22T01:48:33.417Z,0.00
2023-04-22T01:49:33.404Z,0.00
2023-04-22T01:50:33.389Z,0.00
2023-04-22T01:51:33.394Z,0.00
2023-04-22T01:52:33.368Z,0.00
2023-04-22T01:53:33.376Z,0.00
2023-04-22T01:54:33.379Z,0.00
2023-04-22T01:55:33.363Z,0.00
2023-04-22T01:56:33.348Z,0.00
2023-04-22T01:57:33.362Z,0.00
2023-04-22T01:58:33.311Z,0.00
2023-04-22T01:59:33.295Z,0.00
2023-04-22T02:00:33.291Z,0.00
2023-04-22T02:01:33.291Z,0.00
2023-04-22T02:02:33.330Z,0.00
2023-04-22T02:03:33.390Z,0.00
2023-04-22T02:04:33.306Z,0.00
2023-04-22T02:05:33.229Z,0.00
2023-04-22T02:06:33.232Z,0.00
2023-04-22T02:07:33.213Z,0.00
2023-04-22T02:08:33.189Z,0.00
2023-04-22T02:09:33.188Z,0.00
2023-04-22T02:10:33.185Z,0.00
2023-04-22T02:11:33.177Z,0.00
2023-04-22T02:12:33.152Z,0.00
2023-04-22T02:13:33.172Z,0.00
2023-04-22T02:14:33.124Z,0.00
2023-04-22T02:15:33.140Z,0.00
2023-04-22T02:16:33.344Z,0.00
2023-04-22T02:17:33.109Z,0.00
2023-04-22T02:18:33.081Z,0.00
2023-04-22T02:19:33.113Z,0.00
2023-04-22T02:20:33.058Z,0.00
2023-04-22T02:21:33.062Z,0.00
2023-04-22T02:22:33.048Z,0.00
2023-04-22T02:23:33.042Z,0.00
2023-04-22T02:24:33.059Z,0.00
2023-04-22T02:25:33.010Z,0.00
2023-04-22T02:26:33.003Z,0.00
2023-04-22T02:27:33.005Z,0.00
2023-04-22T02:28:32.978Z,0.00
2023-04-22T02:29:33.001Z,0.00
2023-04-22T02:30:32.968Z,0.00
2023-04-22T02:31:33.012Z,0.00
2023-04-22T02:32:33.042Z,0.00
2023-04-22T02:33:32.936Z,0.00
2023-04-22T02:34:32.945Z,0.00
2023-04-22T02:35:32.896Z,0.00
2023-04-22T02:36:32.884Z,0.00
2023-04-22T02:37:32.892Z,0.00
2023-04-22T02:38:32.868Z,0.00
2023-04-22T02:39:32.873Z,0.00
2023-04-22T02:40:32.840Z,0.00
2023-04-22T02:41:32.838Z,0.00
2023-04-22T02:42:32.819Z,0.00
2023-04-22T02:43:32.812Z,0.00
2023-04-22T02:44:32.801Z,0.00
2023-04-22T02:45:32.806Z,0.00
2023-04-22T02:46:32.817Z,0.00
2023-04-22T02:47:32.798Z,0.00
2023-04-22T02:48:32.756Z,0.00
2023-04-22T02:49:32.751Z,0.00
2023-04-22T02:50:32.732Z,0.00
2023-04-22T02:51:32.730Z,0.00
2023-04-22T02:52:32.737Z,0.00
2023-04-22T02:53:32.703Z,0.00
2023-04-22T02:54:32.693Z,0.00
2023-04-22T02:55:32.682Z,0.00
2023-04-22T02:56:32.665Z,0.00
2023-04-22T02:57:32.670Z,0.00
2023-04-22T02:58:32.652Z,0.00
2023-04-22T02:59:32.664Z,0.00
2023-04-22T03:00:32.677Z,0.00
2023-04-22T03:01:32.657Z,0.00
2023-04-22T03:02:32.765Z,0.00
2023-04-22T03:03:32.754Z,0.00
2023-04-22T03:04:32.586Z,0.00
2023-04-22T03:05:32.585Z,0.00
2023-04-22T03:06:32.572Z,0.00
2023-04-22T03:07:32.572Z,0.00
2023-04-22T03:08:32.531Z,0.00
2023-04-22T03:09:32.537Z,0.00
2023-04-22T03:10:32.573Z,0.00
2023-04-22T03:11:32.509Z,0.00
2023-04-22T03:12:32.488Z,0.00
2023-04-22T03:13:32.516Z,0.00
2023-04-22T03:14:32.470Z,0.00
2023-04-22T03:15:32.479Z,0.00
2023-04-22T03:16:32.485Z,0.00
2023-04-22T03:17:32.468Z,0.00
2023-04-22T03:18:32.425Z,0.00
2023-04-22T03:19:32.425Z,0.00
2023-04-22T03:20:32.406Z,0.00
2023-04-22T03:21:32.406Z,0.00
2023-04-22T03:22:32.394Z,0.00
2023-04-22T03:23:32.373Z,0.00
2023-04-22T03:24:32.362Z,0.00
2023-04-22T03:25:32.356Z,0.00
2023-04-22T03:26:32.336Z,0.00
2023-04-22T03:27:32.343Z,0.00
2023-04-22T03:28:32.333Z,0.00
2023-04-22T03:29:32.307Z,0.00
2023-04-22T03:30:32.312Z,0.00
2023-04-22T03:31:32.323Z,0.00
2023-04-22T03:32:32.339Z,0.00
2023-04-22T03:33:32.292Z,0.00
2023-04-22T03:34:32.272Z,0.00
2023-04-22T03:35:32.257Z,0.00
2023-04-22T03:36:32.242Z,0.00
2023-04-22T03:37:32.231Z,0.00
2023-04-22T03:38:32.216Z,0.00
2023-04-22T03:39:32.208Z,0.00
2023-04-22T03:40:32.212Z,0.00
2023-04-22T03:41:32.188Z,0.00
2023-04-22T03:42:32.174Z,0.00
2023-04-22T03:43:32.163Z,0.00
2023-04-22T03:44:32.143Z,0.00
2023-04-22T03:45:32.215Z,0.00
2023-04-22T03:46:32.292Z,0.00
2023-04-22T03:47:32.127Z,0.00
2023-04-22T03:48:32.115Z,0.00
2023-04-22T03:49:32.099Z,0.00
2023-04-22T03:50:32.081Z,0.00
2023-04-22T03:51:32.089Z,0.00
2023-04-22T03:52:32.073Z,0.00
2023-04-22T03:53:32.050Z,0.00
2023-04-22T03:54:32.044Z,0.00
2023-04-22T03:55:31.987Z,1.00
2023-04-22T03:56:32.023Z,0.00
2023-04-22T03:57:32.014Z,0.00
2023-04-22T03:58:31.999Z,0.00
2023-04-22T03:59:32.000Z,0.00
2023-04-22T04:00:31.934Z,1.00
2023-04-22T04:01:31.971Z,0.00
2023-04-22T04:02:32.063Z,0.00
2023-04-22T04:03:32.055Z,2.00
2023-04-22T04:04:32.193Z,1.00
2023-04-22T04:05:31.991Z,1.00
2023-04-22T04:06:31.875Z,1.00
2023-04-22T04:07:31.842Z,2.00
2023-04-22T04:08:31.862Z,2.00
2023-04-22T04:09:31.850Z,2.00
2023-04-22T04:10:31.810Z,3.00
2023-04-22T04:11:31.802Z,4.00
2023-04-22T04:12:31.786Z,4.00
2023-04-22T04:13:31.785Z,5.00
2023-04-22T04:14:31.771Z,7.00
2023-04-22T04:15:31.767Z,6.00
2023-04-22T04:16:31.951Z,6.00
2023-04-22T04:17:31.807Z,7.00
2023-04-22T04:18:31.718Z,6.00
2023-04-22T04:19:31.730Z,4.00
2023-04-22T04:20:31.731Z,4.00
2023-04-22T04:21:31.695Z,6.00
2023-04-22T04:22:31.686Z,6.00
2023-04-22T04:23:31.675Z,4.00
2023-04-22T04:24:31.654Z,9.00
2023-04-22T04:25:31.648Z,11.00
2023-04-22T04:26:31.631Z,14.00
2023-04-22T04:27:31.638Z,13.00
2023-04-22T04:28:31.615Z,13.00
2023-04-22T04:29:31.606Z,12.00
2023-04-22T04:30:33.543Z,17.00
2023-04-22T04:31:31.626Z,12.00
2023-04-22T04:32:31.594Z,12.00
2023-04-22T04:33:31.564Z,14.00
2023-04-22T04:34:31.557Z,10.00
2023-04-22T04:35:31.533Z,10.00
2023-04-22T04:36:31.548Z,12.00
2023-04-22T04:37:31.517Z,13.00
2023-04-22T04:38:31.506Z,15.00
2023-04-22T04:39:31.495Z,17.00
2023-04-22T04:40:31.488Z,22.00
2023-04-22T04:41:31.472Z,17.00
2023-04-22T04:42:31.489Z,21.00
2023-04-22T04:43:31.455Z,18.00
2023-04-22T04:44:31.443Z,18.00
2023-04-22T04:45:31.458Z,21.00
2023-04-22T04:46:31.844Z,23.00
2023-04-22T04:47:31.428Z,23.00
2023-04-22T04:48:31.402Z,24.00
2023-04-22T04:49:31.375Z,24.00
2023-04-22T04:50:31.584Z,24.00
2023-04-22T04:51:31.828Z,26.00
2023-04-22T04:52:31.450Z,24.00
2023-04-22T04:53:32.198Z,25.00
2023-04-22T04:54:31.403Z,25.00
2023-04-22T04:55:32.118Z,26.00
2023-04-22T04:56:31.506Z,25.00
2023-04-22T04:57:31.297Z,24.00
2023-04-22T04:58:31.287Z,26.00
2023-04-22T04:59:31.292Z,28.00
2023-04-22T05:00:31.416Z,28.00
2023-04-22T05:01:31.322Z,26.00
2023-04-22T05:02:31.423Z,28.00
2023-04-22T05:03:31.390Z,34.00
2023-04-22T05:04:31.461Z,32.00
2023-04-22T05:05:31.231Z,32.00
2023-04-22T05:06:31.206Z,31.00
2023-04-22T05:07:31.195Z,31.00
2023-04-22T05:08:31.198Z,31.00
2023-04-22T05:09:31.191Z,31.00
2023-04-22T05:10:31.161Z,31.00
2023-04-22T05:11:31.196Z,31.00
2023-04-22T05:12:31.163Z,34.00
2023-04-22T05:13:31.139Z,35.00
2023-04-22T05:14:31.124Z,29.00
2023-04-22T05:15:31.126Z,26.00
2023-04-22T05:16:31.130Z,28.00
2023-04-22T05:17:31.110Z,27.00
2023-04-22T05:18:31.082Z,23.00
2023-04-22T05:19:31.106Z,24.00
2023-04-22T05:20:32.604Z,25.00
2023-04-22T05:21:31.043Z,28.00
2023-04-22T05:22:31.044Z,32.00
2023-04-22T05:23:31.021Z,36.00
2023-04-22T05:24:31.015Z,41.00
2023-04-22T05:25:31.000Z,42.00
2023-04-22T05:26:30.998Z,45.00
2023-04-22T05:27:30.982Z,52.00
2023-04-22T05:28:30.992Z,59.00
2023-04-22T05:29:30.947Z,62.00
2023-04-22T05:30:30.949Z,66.00
2023-04-22T05:31:30.972Z,68.00
2023-04-22T05:32:30.994Z,76.00
2023-04-22T05:33:30.925Z,77.00
2023-04-22T05:34:30.934Z,82.00
2023-04-22T05:35:30.908Z,87.00
2023-04-22T05:36:31.564Z,92.00
2023-04-22T05:37:30.870Z,96.00
2023-04-22T05:38:30.853Z,95.00
2023-04-22T05:39:31.023Z,103.00
2023-04-22T05:40:30.856Z,110.00
2023-04-22T05:41:30.825Z,109.00
2023-04-22T05:42:30.818Z,112.00
2023-04-22T05:43:30.802Z,111.00
2023-04-22T05:44:30.805Z,107.00
2023-04-22T05:45:30.783Z,106.00
2023-04-22T05:46:30.887Z,105.00
2023-04-22T05:47:30.804Z,110.00
2023-04-22T05:48:30.742Z,116.00
2023-04-22T05:49:30.772Z,113.00
2023-04-22T05:50:30.730Z,118.00
2023-04-22T05:51:30.758Z,130.00
2023-04-22T05:52:30.716Z,134.00
2023-04-22T05:53:30.693Z,132.00
2023-04-22T05:54:30.685Z,136.00
2023-04-22T05:55:30.697Z,139.00
2023-04-22T05:56:30.678Z,143.00
2023-04-22T05:57:30.655Z,145.00
2023-04-22T05:58:30.641Z,146.00
2023-04-22T05:59:30.661Z,154.00
2023-04-22T06:00:30.610Z,150.00
2023-04-22T06:01:30.619Z,156.00
2023-04-22T06:02:30.835Z,157.00
2023-04-22T06:03:30.774Z,159.00
2023-04-22T06:04:31.868Z,160.00
2023-04-22T06:05:30.636Z,165.00
2023-04-22T06:06:30.572Z,135.00
2023-04-22T06:07:30.557Z,181.00
2023-04-22T06:08:30.528Z,167.00
2023-04-22T06:09:30.510Z,218.00
2023-04-22T06:10:30.518Z,195.00
2023-04-22T06:11:30.500Z,194.00
2023-04-22T06:12:30.484Z,192.00
2023-04-22T06:13:30.467Z,188.00
2023-04-22T06:14:30.478Z,190.00
2023-04-22T06:15:30.533Z,194.00
2023-04-22T06:16:30.476Z,193.00
2023-04-22T06:17:30.483Z,194.00
2023-04-22T06:18:30.426Z,195.00
2023-04-22T06:19:30.424Z,196.00
2023-04-22T06:20:30.393Z,197.00
2023-04-22T06:21:30.379Z,203.00
2023-04-22T06:22:30.415Z,203.00
2023-04-22T06:23:30.394Z,172.00
2023-04-22T06:24:30.378Z,253.00
2023-04-22T06:25:30.378Z,180.00
2023-04-22T06:26:30.340Z,210.00
2023-04-22T06:27:30.339Z,289.00
2023-04-22T06:28:30.320Z,210.00
2023-04-22T06:29:30.308Z,208.00
2023-04-22T06:30:30.289Z,260.00
2023-04-22T06:31:30.353Z,248.00
2023-04-22T06:32:30.270Z,224.00
2023-04-22T06:33:30.251Z,222.00
2023-04-22T06:34:30.252Z,242.00
2023-04-22T06:35:30.244Z,253.00
2023-04-22T06:36:30.908Z,286.00
2023-04-22T06:37:30.222Z,217.00
2023-04-22T06:38:30.203Z,258.00
2023-04-22T06:39:30.201Z,307.00
2023-04-22T06:40:30.199Z,249.00
2023-04-22T06:41:30.172Z,254.00
2023-04-22T06:42:30.156Z,325.00
2023-04-22T06:43:30.148Z,246.00
2023-04-22T06:44:30.127Z,288.00
2023-04-22T06:45:30.132Z,322.00
2023-04-22T06:46:30.157Z,283.00
2023-04-22T06:47:30.127Z,279.00
2023-04-22T06:48:30.168Z,308.00
2023-04-22T06:49:30.110Z,263.00
2023-04-22T06:50:30.069Z,259.00
2023-04-22T06:51:30.053Z,298.00
2023-04-22T06:52:30.067Z,271.00
2023-04-22T06:53:30.044Z,268.00
2023-04-22T06:54:30.045Z,223.00
2023-04-22T06:55:30.030Z,381.00
2023-04-22T06:56:30.001Z,283.00
2023-04-22T06:57:29.992Z,243.00
2023-04-22T06:58:30.003Z,300.00
2023-04-22T06:59:29.961Z,354.00
2023-04-22T07:00:29.964Z,283.00
2023-04-22T07:01:30.020Z,273.00
2023-04-22T07:02:29.990Z,265.00
2023-04-22T07:03:30.115Z,339.00
2023-04-22T07:04:30.020Z,306.00
2023-04-22T07:05:29.921Z,349.00
2023-04-22T07:06:29.906Z,266.00
2023-04-22T07:07:29.867Z,291.00
2023-04-22T07:08:29.890Z,325.00
2023-04-22T07:09:29.881Z,270.00
2023-04-22T07:10:29.860Z,352.00
2023-04-22T07:11:29.880Z,263.00
2023-04-22T07:12:29.841Z,300.00
2023-04-22T07:13:29.805Z,290.00
2023-04-22T07:14:29.830Z,316.00
2023-04-22T07:15:29.799Z,268.00
2023-04-22T07:16:29.853Z,286.00
2023-04-22T07:17:29.837Z,286.00
2023-04-22T07:18:29.764Z,273.00
2023-04-22T07:19:29.778Z,268.00
2023-04-22T07:20:29.800Z,297.00
2023-04-22T07:21:29.756Z,280.00
2023-04-22T07:22:29.741Z,278.00
2023-04-22T07:23:29.704Z,284.00
2023-04-22T07:24:29.701Z,282.00
2023-04-22T07:25:29.669Z,284.00
2023-04-22T07:26:29.717Z,285.00
2023-04-22T07:27:29.653Z,290.00
2023-04-22T07:28:29.673Z,256.00
2023-04-22T07:29:29.699Z,311.00
2023-04-22T07:30:29.624Z,280.00
2023-04-22T07:31:29.678Z,359.00
2023-04-22T07:32:29.631Z,363.00
2023-04-22T07:33:29.624Z,287.00
2023-04-22T07:34:29.586Z,352.00
2023-04-22T07:35:29.594Z,329.00
2023-04-22T07:36:29.584Z,291.00
2023-04-22T07:37:29.581Z,325.00
2023-04-22T07:38:29.539Z,285.00
2023-04-22T07:39:29.544Z,367.00
2023-04-22T07:40:29.522Z,374.00
2023-04-22T07:41:29.576Z,375.00
2023-04-22T07:42:29.494Z,398.00
2023-04-22T07:43:29.487Z,426.00
2023-04-22T07:44:29.496Z,332.00
2023-04-22T07:45:29.529Z,387.00
2023-04-22T07:46:29.455Z,372.00
2023-04-22T07:47:29.449Z,311.00
2023-04-22T07:48:29.453Z,314.00
2023-04-22T07:49:29.419Z,389.00
2023-04-22T07:50:29.435Z,380.00
2023-04-22T07:51:29.411Z,409.00
2023-04-22T07:52:29.393Z,416.00
2023-04-22T07:53:29.382Z,371.00
2023-04-22T07:54:29.371Z,378.00
2023-04-22T07:55:29.358Z,312.00
2023-04-22T07:56:29.341Z,307.00
2023-04-22T07:57:29.338Z,325.00
2023-04-22T07:58:29.352Z,400.00
2023-04-22T07:59:29.330Z,246.00
2023-04-22T08:00:29.384Z,399.00
2023-04-22T08:01:29.289Z,355.00
2023-04-22T08:02:29.342Z,253.00
2023-04-22T08:03:29.472Z,331.00
2023-04-22T08:04:29.595Z,320.00
2023-04-22T08:05:29.260Z,320.00
2023-04-22T08:06:29.242Z,315.00
2023-04-22T08:07:33.147Z,312.00
2023-04-22T08:08:29.238Z,310.00
2023-04-22T08:09:29.223Z,315.00
2023-04-22T08:10:29.217Z,303.00
2023-04-22T08:11:29.209Z,291.00
2023-04-22T08:12:29.184Z,289.00
2023-04-22T08:13:29.182Z,297.00
2023-04-22T08:14:29.184Z,279.00
2023-04-22T08:15:29.167Z,306.00
2023-04-22T08:16:29.192Z,286.00
2023-04-22T08:17:29.187Z,304.00
2023-04-22T08:18:29.116Z,308.00
2023-04-22T08:19:29.094Z,320.00
2023-04-22T08:20:29.114Z,344.00
2023-04-22T08:21:29.110Z,289.00
2023-04-22T08:22:29.091Z,315.00
2023-04-22T08:23:29.086Z,277.00
2023-04-22T08:24:29.066Z,299.00
2023-04-22T08:25:29.060Z,299.00
2023-04-22T08:26:29.048Z,298.00
2023-04-22T08:27:29.024Z,275.00
2023-04-22T08:28:29.064Z,319.00
2023-04-22T08:29:29.001Z,323.00
2023-04-22T08:30:29.002Z,334.00
2023-04-22T08:31:29.003Z,308.00
2023-04-22T08:32:29.021Z,317.00
2023-04-22T08:33:28.963Z,341.00
2023-04-22T08:34:28.949Z,319.00
2023-04-22T08:35:28.939Z,362.00
2023-04-22T08:36:28.949Z,282.00
2023-04-22T08:37:28.897Z,321.00
2023-04-22T08:38:28.904Z,345.00
2023-04-22T08:39:28.899Z,325.00
2023-04-22T08:40:28.890Z,344.00
2023-04-22T08:41:28.872Z,364.00
2023-04-22T08:42:28.857Z,273.00
2023-04-22T08:43:28.843Z,277.00
2023-04-22T08:44:28.821Z,322.00
2023-04-22T08:45:28.861Z,346.00
2023-04-22T08:46:28.927Z,328.00
2023-04-22T08:47:28.817Z,312.00
2023-04-22T08:48:28.811Z,307.00
2023-04-22T08:49:28.771Z,361.00
2023-04-22T08:50:28.771Z,327.00
2023-04-22T08:51:28.780Z,285.00
2023-04-22T08:52:28.749Z,280.00
2023-04-22T08:53:28.727Z,308.00
2023-04-22T08:54:28.725Z,302.00
2023-04-22T08:55:28.724Z,302.00
2023-04-22T08:56:28.699Z,294.00
2023-04-22T08:57:28.713Z,316.00
2023-04-22T08:58:28.690Z,285.00
2023-04-22T08:59:28.678Z,341.00
2023-04-22T09:00:28.646Z,292.00
2023-04-22T09:01:28.675Z,306.00
2023-04-22T09:02:28.698Z,295.00
2023-04-22T09:03:28.736Z,279.00
2023-04-22T09:04:28.669Z,289.00
2023-04-22T09:05:28.613Z,286.00
2023-04-22T09:06:28.584Z,277.00
2023-04-22T09:07:28.580Z,277.00
2023-04-22T09:08:28.579Z,262.00
2023-04-22T09:09:28.593Z,289.00
2023-04-22T09:10:28.557Z,238.00
2023-04-22T09:11:28.564Z,273.00
2023-04-22T09:12:28.573Z,238.00
2023-04-22T09:13:28.548Z,289.00
2023-04-22T09:14:28.502Z,266.00
2023-04-22T09:15:28.492Z,261.00
2023-04-22T09:16:28.630Z,285.00
2023-04-22T09:17:28.479Z,297.00
2023-04-22T09:18:28.460Z,317.00
2023-04-22T09:19:28.449Z,288.00
2023-04-22T09:20:28.433Z,291.00
2023-04-22T09:21:28.445Z,286.00
2023-04-22T09:22:28.434Z,303.00
2023-04-22T09:23:28.417Z,306.00
2023-04-22T09:24:28.392Z,309.00
2023-04-22T09:25:28.400Z,294.00
2023-04-22T09:26:28.370Z,309.00
2023-04-22T09:27:28.362Z,302.00
2023-04-22T09:28:28.384Z,300.00
2023-04-22T09:29:28.330Z,323.00
2023-04-22T09:30:28.323Z,322.00
2023-04-22T09:31:28.334Z,259.00
2023-04-22T09:32:28.376Z,324.00
2023-04-22T09:33:28.314Z,332.00
2023-04-22T09:34:28.313Z,365.00
2023-04-22T09:35:28.301Z,297.00
2023-04-22T09:36:28.279Z,334.00
2023-04-22T09:37:36.135Z,356.00
2023-04-22T09:38:28.262Z,362.00
2023-04-22T09:39:28.228Z,378.00
2023-04-22T09:40:28.224Z,340.00
2023-04-22T09:41:28.204Z,348.00
2023-04-22T09:42:28.180Z,341.00
2023-04-22T09:43:28.197Z,328.00
2023-04-22T09:44:28.190Z,331.00
2023-04-22T09:45:28.161Z,339.00
2023-04-22T09:46:28.588Z,310.00
2023-04-22T09:47:28.192Z,325.00
2023-04-22T09:48:28.123Z,331.00
2023-04-22T09:49:28.126Z,323.00
2023-04-22T09:50:28.129Z,312.00
2023-04-22T09:51:28.111Z,326.00
2023-04-22T09:52:28.121Z,324.00
2023-04-22T09:53:28.070Z,308.00
2023-04-22T09:54:28.049Z,320.00
2023-04-22T09:55:28.045Z,312.00
2023-04-22T09:56:28.040Z,323.00
2023-04-22T09:57:28.062Z,303.00
2023-04-22T09:58:28.173Z,325.00
2023-04-22T09:59:28.033Z,317.00
2023-04-22T10:00:27.988Z,325.00
2023-04-22T10:01:28.037Z,317.00
2023-04-22T10:02:28.062Z,324.00
2023-04-22T10:03:28.033Z,264.00
2023-04-22T10:04:28.033Z,389.00
2023-04-22T10:05:27.954Z,383.00
2023-04-22T10:06:27.965Z,412.00
2023-04-22T10:07:27.972Z,412.00
2023-04-22T10:08:27.914Z,406.00
2023-04-22T10:09:27.919Z,420.00
2023-04-22T10:10:27.898Z,380.00
2023-04-22T10:11:27.903Z,399.00
2023-04-22T10:12:35.277Z,408.00
2023-04-22T10:13:27.870Z,412.00
2023-04-22T10:14:27.855Z,380.00
2023-04-22T10:15:27.867Z,397.00
2023-04-22T10:16:27.864Z,409.00
2023-04-22T10:17:27.837Z,395.00
2023-04-22T10:18:27.824Z,384.00
2023-04-22T10:19:27.797Z,384.00
2023-04-22T10:20:27.800Z,400.00
2023-04-22T10:21:28.109Z,397.00
2023-04-22T10:22:27.773Z,399.00
2023-04-22T10:23:27.756Z,385.00
2023-04-22T10:24:27.756Z,402.00
2023-04-22T10:25:27.745Z,398.00
2023-04-22T10:26:27.712Z,400.00
2023-04-22T10:27:27.722Z,403.00
2023-04-22T10:28:27.732Z,402.00
2023-04-22T10:29:27.719Z,404.00
2023-04-22T10:30:27.684Z,402.00
2023-04-22T10:31:27.834Z,408.00
2023-04-22T10:32:27.681Z,421.00
2023-04-22T10:33:27.821Z,415.00
2023-04-22T10:34:27.633Z,420.00
2023-04-22T10:35:27.618Z,418.00
2023-04-22T10:36:27.598Z,411.00
2023-04-22T10:37:27.606Z,411.00
2023-04-22T10:38:27.586Z,402.00
2023-04-22T10:39:27.584Z,414.00
2023-04-22T10:40:27.586Z,428.00
2023-04-22T10:41:27.585Z,424.00
2023-04-22T10:42:27.548Z,428.00
2023-04-22T10:43:28.325Z,423.00
2023-04-22T10:44:27.550Z,413.00
2023-04-22T10:45:27.551Z,420.00
2023-04-22T10:46:27.706Z,414.00
2023-04-22T10:47:27.514Z,434.00
2023-04-22T10:48:27.479Z,401.00
2023-04-22T10:49:27.557Z,417.00
2023-04-22T10:50:27.445Z,427.00
2023-04-22T10:51:27.457Z,424.00
2023-04-22T10:52:27.469Z,430.00
2023-04-22T10:53:27.437Z,427.00
2023-04-22T10:54:30.545Z,437.00
2023-04-22T10:55:27.399Z,416.00
2023-04-22T10:56:27.403Z,436.00
2023-04-22T10:57:27.394Z,427.00
2023-04-22T10:58:27.404Z,444.00
2023-04-22T10:59:27.357Z,444.00
2023-04-22T11:00:29.572Z,453.00
2023-04-22T11:01:27.373Z,438.00
2023-04-22T11:02:27.504Z,431.00
2023-04-22T11:03:27.547Z,441.00
2023-04-22T11:04:27.330Z,426.00
2023-04-22T11:05:27.638Z,433.00
2023-04-22T11:06:27.287Z,441.00
2023-04-22T11:07:27.356Z,429.00
2023-04-22T11:08:27.273Z,429.00
2023-04-22T11:09:27.270Z,431.00
2023-04-22T11:10:27.248Z,425.00
2023-04-22T11:11:27.238Z,433.00
2023-04-22T11:12:27.207Z,437.00
2023-04-22T11:13:27.202Z,438.00
2023-04-22T11:14:27.205Z,435.00
2023-04-22T11:15:27.212Z,452.00
2023-04-22T11:16:27.280Z,444.00
2023-04-22T11:17:27.177Z,437.00
2023-04-22T11:18:27.152Z,464.00
2023-04-22T11:19:27.180Z,464.00
2023-04-22T11:20:27.146Z,429.00
2023-04-22T11:21:27.137Z,426.00
2023-04-22T11:22:27.184Z,434.00
2023-04-22T11:23:27.100Z,449.00
2023-04-22T11:24:27.088Z,460.00
2023-04-22T11:25:27.116Z,441.00
2023-04-22T11:26:27.060Z,481.00
2023-04-22T11:27:27.056Z,482.00
2023-04-22T11:28:27.084Z,484.00
2023-04-22T11:29:27.021Z,513.00
2023-04-22T11:30:27.033Z,503.00
2023-04-22T11:31:27.037Z,497.00
2023-04-22T11:32:27.018Z,509.00
2023-04-22T11:33:27.028Z,511.00
2023-04-22T11:34:26.983Z,511.00
2023-04-22T11:35:27.018Z,493.00
2023-04-22T11:36:26.941Z,500.00
2023-04-22T11:37:27.996Z,497.00
2023-04-22T11:38:26.930Z,505.00
2023-04-22T11:39:26.919Z,492.00
2023-04-22T11:40:31.147Z,494.00
2023-04-22T11:41:26.901Z,493.00
2023-04-22T11:42:26.877Z,486.00
2023-04-22T11:43:26.897Z,491.00
2023-04-22T11:44:26.862Z,473.00
2023-04-22T11:45:26.885Z,478.00
2023-04-22T11:46:26.916Z,477.00
2023-04-22T11:47:26.910Z,457.00
2023-04-22T11:48:26.812Z,472.00
2023-04-22T11:49:26.814Z,458.00
2023-04-22T11:50:26.793Z,462.00
2023-04-22T11:51:26.802Z,449.00
2023-04-22T11:52:26.771Z,397.00
2023-04-22T11:53:26.849Z,469.00
2023-04-22T11:54:26.747Z,472.00
2023-04-22T11:55:26.752Z,312.00
2023-04-22T11:56:26.735Z,444.00
2023-04-22T11:57:26.754Z,443.00
2023-04-22T11:58:26.702Z,427.00
2023-04-22T11:59:26.732Z,462.00
2023-04-22T12:00:26.688Z,372.00
2023-04-22T12:01:26.665Z,404.00
2023-04-22T12:02:26.730Z,423.00
2023-04-22T12:03:26.965Z,487.00
2023-04-22T12:04:26.685Z,317.00
2023-04-22T12:05:26.639Z,416.00
2023-04-22T12:06:26.633Z,394.00
2023-04-22T12:07:26.607Z,421.00
2023-04-22T12:08:26.619Z,410.00
2023-04-22T12:09:26.602Z,484.00
2023-04-22T12:10:26.593Z,282.00
2023-04-22T12:11:26.567Z,426.00
2023-04-22T12:12:26.548Z,436.00
2023-04-22T12:13:26.533Z,400.00
2023-04-22T12:14:26.550Z,418.00
2023-04-22T12:15:26.542Z,422.00
2023-04-22T12:16:26.538Z,404.00
2023-04-22T12:17:26.525Z,415.00
2023-04-22T12:18:26.485Z,480.00
2023-04-22T12:19:26.476Z,324.00
2023-04-22T12:20:26.487Z,412.00
2023-04-22T12:21:26.475Z,478.00
2023-04-22T12:22:26.460Z,387.00
2023-04-22T12:23:26.444Z,300.00
2023-04-22T12:24:26.445Z,452.00
2023-04-22T12:25:26.418Z,384.00
2023-04-22T12:26:27.373Z,388.00
2023-04-22T12:27:26.402Z,454.00
2023-04-22T12:28:26.842Z,375.00
2023-04-22T12:29:26.413Z,244.00
2023-04-22T12:30:26.341Z,467.00
2023-04-22T12:31:26.396Z,430.00
2023-04-22T12:32:26.341Z,444.00
2023-04-22T12:33:26.407Z,382.00
2023-04-22T12:34:26.306Z,368.00
2023-04-22T12:35:26.327Z,364.00
2023-04-22T12:36:26.284Z,357.00
2023-04-22T12:37:26.274Z,341.00
2023-04-22T12:38:26.284Z,377.00
2023-04-22T12:39:26.263Z,357.00
2023-04-22T12:40:26.261Z,388.00
2023-04-22T12:41:26.271Z,542.00
2023-04-22T12:42:26.218Z,379.00
2023-04-22T12:43:26.245Z,411.00
2023-04-22T12:44:26.209Z,367.00
2023-04-22T12:45:26.219Z,302.00
2023-04-22T12:46:26.196Z,538.00
2023-04-22T12:47:26.224Z,274.00